Time;durP1;ratioP1;P1;durP2;ratioP2;P2;SDS_P1;SDS_P2;PMS_P1;PMS_P2;Temp;Humidity;BMP_temperature;BMP_pressure;BME280_temperature;BME280_humidity;BME280_pressure;Samples;Min_cycle;Max_cycle;Signal;HPM_P1;HPM_P2
2023/07/07 00:02:24;;;;;;;90.20;5.90;;;;;;;25.11;58.19;99895.44;7301900;19;129484;-39
2023/07/07 00:04:51;;;;;;;69.10;4.47;;;;;;;25.07;58.49;99897.56;7307058;19;129716;-40
2023/07/07 00:07:16;;;;;;;53.20;3.80;;;;;;;25.02;58.71;99883.25;7307413;19;129740;-37
2023/07/07 00:09:41;;;;;;;88.37;5.93;;;;;;;25.08;58.25;99890.50;7306405;19;130370;-41
2023/07/07 00:12:07;;;;;;;79.53;5.37;;;;;;;25.10;58.54;99899.06;7307372;19;130591;-39
2023/07/07 00:14:33;;;;;;;59.60;4.33;;;;;;;25.08;57.97;99903.66;7306289;19;129485;-41
2023/07/07 00:17:01;;;;;;;92.07;5.87;;;;;;;25.12;58.11;99902.38;7305972;19;129976;-38
2023/07/07 00:19:34;;;;;;;83.95;5.32;;;;;;;25.09;58.22;99902.69;7305952;19;130330;-38
2023/07/07 00:22:05;;;;;;;71.03;4.70;;;;;;;25.10;58.72;99909.59;7307428;19;130257;-42
2023/07/07 00:24:32;;;;;;;70.88;4.72;;;;;;;25.09;58.08;99908.75;7306785;19;129533;-41
2023/07/07 00:26:58;;;;;;;85.43;5.25;;;;;;;25.10;57.93;99905.16;7307119;19;129958;-43
2023/07/07 00:29:23;;;;;;;98.03;6.30;;;;;;;25.09;58.10;99903.50;7306249;19;129728;-39
2023/07/07 00:31:49;;;;;;;78.47;5.20;;;;;;;25.09;57.83;99900.06;7306215;19;130075;-38
2023/07/07 00:34:14;;;;;;;70.23;4.53;;;;;;;25.10;58.69;99915.69;7306832;19;129426;-42
2023/07/07 00:36:39;;;;;;;105.07;6.57;;;;;;;25.10;58.15;99909.59;7306834;19;130108;-38
2023/07/07 00:39:05;;;;;;;80.60;5.00;;;;;;;25.01;58.73;99900.00;7306692;19;129478;-38
2023/07/07 00:41:30;;;;;;;51.33;3.47;;;;;;;25.10;58.47;99917.50;7306292;19;129862;-39
2023/07/07 00:44:14;;;;;;;66.53;4.53;;;;;;;25.02;59.11;99899.88;7305503;19;129929;-40
2023/07/07 00:46:40;;;;;;;79.65;5.22;;;;;;;25.10;58.11;99914.88;7306389;19;130529;-40
2023/07/07 00:49:14;;;;;;;100.63;6.18;;;;;;;25.11;58.61;99916.50;7304953;19;128995;-42
2023/07/07 00:51:59;;;;;;;88.22;5.70;;;;;;;25.12;58.74;99923.44;7305617;19;129472;-40
2023/07/07 00:54:31;;;;;;;75.18;4.95;;;;;;;25.08;58.46;99911.56;7304920;19;129837;-42
2023/07/07 00:56:56;;;;;;;63.72;4.18;;;;;;;25.10;58.85;99915.69;7305500;19;129171;-41
2023/07/07 00:59:26;;;;;;;54.80;3.77;;;;;;;25.10;58.37;99917.50;7305029;19;130083;-40
2023/07/07 01:01:55;;;;;;;101.07;6.22;;;;;;;24.99;58.49;99901.97;7304852;19;129560;-37
2023/07/07 01:04:23;;;;;;;89.15;5.55;;;;;;;25.10;58.54;99922.75;7307723;19;131254;-40
2023/07/07 01:06:58;;;;;;;83.93;5.50;;;;;;;25.10;59.00;99925.38;7305439;19;129966;-39
2023/07/07 01:09:24;;;;;;;54.97;3.78;;;;;;;25.10;58.37;99926.22;7304176;19;129325;-41
2023/07/07 01:11:49;;;;;;;69.23;4.70;;;;;;;25.08;58.56;99924.72;7305301;19;129746;-40
2023/07/07 01:14:22;;;;;;;74.47;4.83;;;;;;;25.09;58.61;99923.75;7302212;19;129223;-40
2023/07/07 01:17:06;;;;;;;87.05;5.32;;;;;;;25.12;58.77;99923.44;7306143;19;131035;-39
2023/07/07 01:19:49;;;;;;;93.53;5.80;;;;;;;25.15;58.87;99928.38;7305172;19;130211;-43
2023/07/07 01:22:42;;;;;;;74.22;4.75;;;;;;;25.13;59.18;99925.06;7306530;19;129515;-40
2023/07/07 01:25:22;;;;;;;84.95;5.30;;;;;;;25.12;58.79;99933.97;7305903;19;130791;-39
2023/07/07 01:28:22;;;;;;;78.70;5.32;;;;;;;25.13;58.74;99925.06;7305482;19;129072;-41
2023/07/07 01:30:55;;;;;;;81.60;5.22;;;;;;;25.12;59.02;99928.69;7305675;19;131215;-41
2023/07/07 01:33:25;;;;;;;50.42;3.78;;;;;;;25.11;58.69;99925.22;7304569;19;129191;-36
2023/07/07 01:35:51;;;;;;;85.55;5.38;;;;;;;25.11;58.52;99922.59;7305564;19;130967;-41
2023/07/07 01:38:35;;;;;;;90.73;5.90;;;;;;;25.15;58.67;99928.38;7302814;19;128910;-43
2023/07/07 01:41:09;;;;;;;94.60;5.85;;;;;;;25.06;58.84;99914.34;7303949;19;130677;-42
2023/07/07 01:43:45;;;;;;;99.60;6.03;;;;;;;25.11;58.99;99919.97;7304551;19;130506;-40
2023/07/07 01:46:22;;;;;;;63.60;3.92;;;;;;;25.02;59.10;99901.66;7305339;19;129858;-37
2023/07/07 01:49:01;;;;;;;56.00;3.72;;;;;;;25.11;59.20;99916.50;7303793;19;129175;-41
2023/07/07 01:51:35;;;;;;;77.65;4.78;;;;;;;25.12;58.82;99918.19;7303757;19;129716;-42
2023/07/07 01:54:03;;;;;;;78.15;4.90;;;;;;;25.11;58.40;99919.13;7304619;19;130244;-38
2023/07/07 01:56:31;;;;;;;75.90;4.80;;;;;;;25.10;58.97;99915.69;7304333;19;130282;-39
2023/07/07 01:58:57;;;;;;;95.95;5.70;;;;;;;25.11;58.33;99927.03;7301865;19;129151;-40
2023/07/07 02:01:23;;;;;;;78.32;4.90;;;;;;;25.08;58.85;99922.91;7305581;19;129592;-41
2023/07/07 02:03:48;;;;;;;76.80;4.67;;;;;;;25.10;58.55;99920.97;7303712;19;129527;-41
2023/07/07 02:06:13;;;;;;;93.13;5.93;;;;;;;25.12;59.01;99926.06;7305471;19;130195;-41
2023/07/07 02:08:39;;;;;;;95.27;5.93;;;;;;;25.12;58.26;99928.69;7302346;19;129796;-42
2023/07/07 02:11:04;;;;;;;56.23;3.77;;;;;;;25.09;58.20;99919.28;7301872;19;131511;-39
2023/07/07 02:13:30;;;;;;;65.37;4.37;;;;;;;25.11;58.29;99927.03;7302197;19;131112;-41
2023/07/07 02:15:55;;;;;;;87.73;5.37;;;;;;;25.10;58.62;99925.38;7300557;19;130064;-42
2023/07/07 02:18:20;;;;;;;94.93;5.70;;;;;;;25.09;58.25;99929.00;7302153;19;129605;-39
2023/07/07 02:20:46;;;;;;;53.10;3.87;;;;;;;25.05;58.65;99919.75;7303417;19;129845;-41
2023/07/07 02:23:11;;;;;;;68.70;4.30;;;;;;;25.12;59.04;99931.31;7301547;19;130744;-41
2023/07/07 02:25:36;;;;;;;87.93;5.30;;;;;;;25.11;58.75;99922.59;7302658;19;131329;-41
2023/07/07 02:28:02;;;;;;;88.13;5.40;;;;;;;25.09;59.01;99923.75;7301890;19;129076;-40
2023/07/07 02:30:28;;;;;;;67.77;4.13;;;;;;;25.12;58.78;99928.69;7298119;19;131369;-35
2023/07/07 02:32:54;;;;;;;80.65;5.05;;;;;;;25.04;59.10;99915.50;7302725;19;130571;-40
2023/07/07 02:35:19;;;;;;;87.80;5.30;;;;;;;25.13;58.33;99925.06;7300433;19;130213;-42
2023/07/07 02:37:44;;;;;;;74.33;4.83;;;;;;;25.11;59.09;99927.03;7302350;19;129761;-38
2023/07/07 02:40:10;;;;;;;60.63;3.87;;;;;;;25.12;58.98;99926.06;7300932;19;130013;-41
2023/07/07 02:42:36;;;;;;;91.23;5.60;;;;;;;25.03;58.62;99905.94;7302641;19;129805;-42
2023/07/07 02:45:01;;;;;;;87.57;5.37;;;;;;;25.12;58.40;99923.44;7299416;19;129673;-41
2023/07/07 02:47:28;;;;;;;61.90;3.83;;;;;;;25.11;58.43;99925.22;7303857;19;130998;-38
2023/07/07 02:49:54;;;;;;;64.85;4.32;;;;;;;25.11;59.02;99917.34;7298262;19;129438;-42
2023/07/07 02:52:19;;;;;;;62.43;3.90;;;;;;;25.12;59.16;99928.69;7301195;19;130415;-41
2023/07/07 02:54:44;;;;;;;99.93;6.27;;;;;;;25.04;58.55;99915.50;7299653;19;130684;-39
2023/07/07 02:57:10;;;;;;;94.13;6.10;;;;;;;25.12;58.59;99923.44;7301100;19;130821;-41
2023/07/07 02:59:35;;;;;;;88.07;5.33;;;;;;;25.14;59.09;99930.19;7300148;19;130016;-41
2023/07/07 03:02:00;;;;;;;60.90;3.87;;;;;;;25.13;58.33;99928.53;7301547;19;130291;-40
2023/07/07 03:04:26;;;;;;;90.17;5.43;;;;;;;25.10;58.92;99925.38;7302509;19;130509;-41
2023/07/07 03:06:52;;;;;;;77.93;4.87;;;;;;;25.13;59.00;99927.72;7298646;19;129609;-41
2023/07/07 03:09:18;;;;;;;82.87;5.17;;;;;;;25.11;59.23;99933.13;7299608;19;129007;-40
2023/07/07 03:11:44;;;;;;;86.90;5.43;;;;;;;25.02;59.24;99922.72;7300555;19;129787;-39
2023/07/07 03:14:09;;;;;;;69.47;4.30;;;;;;;25.10;59.23;99926.22;7299747;19;130335;-41
2023/07/07 03:16:34;;;;;;;83.53;5.17;;;;;;;25.12;58.83;99937.41;7302256;19;131403;-38
2023/07/07 03:19:07;;;;;;;85.77;5.37;;;;;;;25.14;58.89;99945.16;7299544;19;130233;-42
2023/07/07 03:21:32;;;;;;;90.40;5.65;;;;;;;25.09;59.29;99939.53;7302679;19;130526;-40
2023/07/07 03:23:58;;;;;;;63.30;4.23;;;;;;;25.13;58.96;99944.31;7299678;19;130231;-40
2023/07/07 03:26:26;;;;;;;63.83;4.07;;;;;;;25.12;58.88;99945.28;7302603;19;129921;-42
2023/07/07 03:28:51;;;;;;;81.50;5.22;;;;;;;25.01;58.45;99936.81;7299875;19;129359;-42
2023/07/07 03:31:23;;;;;;;65.60;4.37;;;;;;;25.13;59.18;99948.75;7301387;19;130959;-40
2023/07/07 03:33:51;;;;;;;104.90;6.28;;;;;;;25.10;58.45;99951.69;7300046;19;129518;-42
2023/07/07 03:36:20;;;;;;;65.88;4.22;;;;;;;25.03;58.82;99940.13;7300053;19;129927;-37
2023/07/07 03:38:46;;;;;;;74.20;4.63;;;;;;;25.04;59.12;99941.81;7305380;19;130291;-38
2023/07/07 03:41:15;;;;;;;79.97;5.10;;;;;;;25.12;58.72;99960.28;7306199;19;129740;-41
2023/07/07 03:43:44;;;;;;;101.05;5.95;;;;;;;25.12;58.71;99955.00;7308400;19;129320;-38
2023/07/07 03:46:10;;;;;;;62.83;4.03;;;;;;;25.07;59.20;99958.06;7306932;19;130085;-39
2023/07/07 03:48:35;;;;;;;73.03;4.70;;;;;;;25.02;59.11;99943.75;7306758;19;130645;-40
2023/07/07 03:51:03;;;;;;;85.10;5.33;;;;;;;25.06;59.03;99952.97;7308169;19;130468;-39
2023/07/07 03:53:30;;;;;;;111.57;6.28;;;;;;;25.10;59.23;99960.44;7306511;19;129272;-40
2023/07/07 03:55:56;;;;;;;66.72;4.35;;;;;;;25.10;59.11;99960.44;7305308;19;130590;-41
2023/07/07 03:58:23;;;;;;;78.17;4.90;;;;;;;25.10;58.95;99962.22;7306859;19;129522;-40
2023/07/07 04:00:49;;;;;;;58.17;3.72;;;;;;;25.11;58.76;99958.59;7304623;19;131698;-43
2023/07/07 04:03:15;;;;;;;51.73;3.43;;;;;;;25.11;58.95;99961.22;7305090;19;131732;-41
2023/07/07 04:05:49;;;;;;;68.82;4.22;;;;;;;25.11;59.20;99966.50;7308253;19;129202;-40
2023/07/07 04:08:21;;;;;;;81.22;4.93;;;;;;;25.10;58.96;99960.44;7307383;19;131319;-41
2023/07/07 04:10:58;;;;;;;63.10;4.10;;;;;;;25.11;59.17;99964.69;7306375;19;130175;-34
2023/07/07 04:13:24;;;;;;;60.78;3.70;;;;;;;25.10;59.07;99968.31;7306626;19;130118;-39
2023/07/07 04:16:05;;;;;;;86.00;5.27;;;;;;;25.14;59.40;99972.28;7305306;19;131632;-39
2023/07/07 04:18:33;;;;;;;91.68;5.45;;;;;;;25.02;59.12;99959.53;7307135;19;129383;-39
2023/07/07 04:21:08;;;;;;;64.60;4.00;;;;;;;25.11;58.85;99974.38;7307596;19;130663;-39
2023/07/07 04:23:35;;;;;;;80.15;5.13;;;;;;;25.10;59.30;99970.13;7307141;19;129764;-32
2023/07/07 04:26:01;;;;;;;75.97;4.63;;;;;;;25.09;59.04;99971.09;7307558;19;130103;-38
2023/07/07 04:28:26;;;;;;;93.83;5.63;;;;;;;25.12;59.43;99973.44;7306609;19;129820;-36
2023/07/07 04:30:53;;;;;;;107.90;6.50;;;;;;;25.02;58.96;99951.66;7306188;19;129350;-34
2023/07/07 04:33:19;;;;;;;;;;;;;;;25.17;58.72;99964.06;7305930;19;130479;-39
2023/07/07 04:35:44;;;;;;;75.00;4.65;;;;;;;25.12;59.28;99973.44;7305763;19;129285;-40
2023/07/07 04:38:10;;;;;;;77.07;4.57;;;;;;;25.10;58.57;99970.13;7307036;19;129753;-41
2023/07/07 04:40:35;;;;;;;97.13;6.00;;;;;;;25.11;58.81;99979.66;7303957;19;130218;-37
2023/07/07 04:43:01;;;;;;;95.73;5.77;;;;;;;25.11;58.64;99979.66;7302471;19;130423;-41
2023/07/07 04:45:26;;;;;;;58.33;3.63;;;;;;;25.10;58.94;99978.84;7306727;19;130021;-43
2023/07/07 04:47:51;;;;;;;128.03;7.50;;;;;;;25.07;58.66;99973.88;7305869;19;129039;-39
2023/07/07 04:50:17;;;;;;;95.77;5.57;;;;;;;25.10;58.71;99981.47;7301940;19;129662;-36
2023/07/07 04:52:42;;;;;;;79.53;4.97;;;;;;;25.11;59.49;99977.03;7306171;19;129838;-42
2023/07/07 04:55:08;;;;;;;88.23;5.43;;;;;;;25.11;59.05;99987.53;7303618;19;129072;-40
2023/07/07 04:57:34;;;;;;;86.10;5.15;;;;;;;25.09;59.26;99987.69;7304792;19;130138;-37
2023/07/07 04:59:59;;;;;;;79.03;4.77;;;;;;;25.09;59.43;99981.63;7303778;19;129946;-38
2023/07/07 05:02:24;;;;;;;75.73;5.00;;;;;;;25.10;58.80;99988.53;7303216;19;131022;-39
2023/07/07 05:04:50;;;;;;;88.27;5.33;;;;;;;25.12;58.71;99986.59;7303051;19;131544;-38
2023/07/07 05:07:15;;;;;;;100.93;5.87;;;;;;;25.10;59.25;99989.38;7303406;19;130022;-42
2023/07/07 05:09:40;;;;;;;94.43;5.50;;;;;;;25.04;58.79;99978.63;7302391;19;130110;-38
2023/07/07 05:12:09;;;;;;;76.73;4.73;;;;;;;25.08;59.61;99991.31;7304071;19;129591;-40
2023/07/07 05:14:34;;;;;;;110.13;6.47;;;;;;;25.02;59.18;99980.59;7300218;19;129613;-37
2023/07/07 05:16:59;;;;;;;112.17;6.67;;;;;;;25.10;59.08;99993.81;7301658;19;129684;-39
2023/07/07 05:19:25;;;;;;;83.63;4.97;;;;;;;25.09;59.45;99992.97;7303832;19;129601;-32
2023/07/07 05:21:50;;;;;;;66.60;4.20;;;;;;;25.09;58.70;99992.16;7303697;19;130520;-39
2023/07/07 05:24:16;;;;;;;57.80;3.77;;;;;;;25.10;58.80;100001.69;7308279;19;129587;-36
2023/07/07 05:26:41;;;;;;;122.60;6.97;;;;;;;25.07;59.32;99991.47;7302975;19;130404;-37
2023/07/07 05:29:06;;;;;;;73.30;4.57;;;;;;;25.10;58.98;99993.81;7302737;19;130528;-36
2023/07/07 05:31:33;;;;;;;72.30;4.43;;;;;;;25.10;58.69;99999.06;7304649;19;129510;-37
2023/07/07 05:33:58;;;;;;;111.38;6.57;;;;;;;25.09;59.18;100003.50;7305958;19;131451;-41
2023/07/07 05:36:24;;;;;;;88.63;5.50;;;;;;;25.10;59.03;99999.06;7302022;19;129957;-39
2023/07/07 05:38:50;;;;;;;65.20;4.00;;;;;;;25.10;59.26;100004.31;7304391;19;131067;-34
2023/07/07 05:41:15;;;;;;;80.83;4.87;;;;;;;25.09;59.51;100002.69;7306563;19;129924;-41
2023/07/07 05:43:41;;;;;;;100.50;6.10;;;;;;;25.07;59.01;100008.06;7303107;19;129030;-41
2023/07/07 05:46:12;;;;;;;75.20;4.67;;;;;;;25.08;59.11;100012.38;7303449;19;131871;-40
2023/07/07 05:48:37;;;;;;;64.25;3.92;;;;;;;25.08;58.71;100012.38;7302951;19;131002;-47
2023/07/07 05:51:05;;;;;;;85.30;5.33;;;;;;;25.08;58.95;100022.06;7305717;19;130560;-34
2023/07/07 05:53:31;;;;;;;101.00;5.90;;;;;;;25.08;58.91;100022.06;7303977;19;129501;-40
2023/07/07 05:56:03;;;;;;;94.27;5.70;;;;;;;25.09;59.79;100018.47;7303190;19;130189;-41
2023/07/07 05:58:30;;;;;;;76.60;4.75;;;;;;;25.08;58.79;100019.44;7303036;19;130014;-41
2023/07/07 06:00:55;;;;;;;72.78;4.28;;;;;;;25.08;59.54;100022.06;7300361;19;130567;-38
2023/07/07 06:03:21;;;;;;;82.43;4.83;;;;;;;25.08;59.57;100022.91;7304570;19;131232;-39
2023/07/07 06:05:46;;;;;;;90.43;5.37;;;;;;;25.07;59.57;100015.97;7304117;19;130013;-36
2023/07/07 06:08:11;;;;;;;80.23;4.87;;;;;;;25.00;59.46;100014.09;7303310;19;130045;-37
2023/07/07 06:10:37;;;;;;;51.63;3.33;;;;;;;25.08;59.26;100019.44;7301885;19;129526;-41
2023/07/07 06:13:03;;;;;;;104.73;6.30;;;;;;;25.08;59.45;100025.53;7305177;19;130477;-39
2023/07/07 06:15:29;;;;;;;80.82;5.03;;;;;;;25.08;59.37;100028.16;7303215;19;130534;-32
2023/07/07 06:17:54;;;;;;;70.67;4.20;;;;;;;25.08;58.83;100024.69;7302824;19;130388;-38
2023/07/07 06:20:20;;;;;;;100.20;5.90;;;;;;;25.08;59.67;100035.22;7301505;19;129517;-39
2023/07/07 06:22:45;;;;;;;95.73;5.47;;;;;;;25.08;58.83;100032.59;7302065;19;131138;-38
2023/07/07 06:25:11;;;;;;;89.87;5.23;;;;;;;25.08;58.82;100032.59;7302846;19;129553;-35
2023/07/07 06:27:36;;;;;;;86.20;5.10;;;;;;;25.07;58.83;100025.69;7300443;19;129902;-40
2023/07/07 06:30:02;;;;;;;80.57;4.80;;;;;;;25.08;58.77;100030.78;7298481;19;130356;-39
2023/07/07 06:32:27;;;;;;;84.37;4.97;;;;;;;25.07;59.11;100041.47;7302256;19;130003;-38
2023/07/07 06:34:52;;;;;;;98.10;5.97;;;;;;;24.98;58.72;100016.06;7301628;19;129545;-38
2023/07/07 06:37:18;;;;;;;90.67;5.30;;;;;;;25.04;59.27;100031.25;7300741;19;130119;-38
2023/07/07 06:39:43;;;;;;;94.40;5.50;;;;;;;25.09;58.73;100034.25;7299562;19;129678;-38
2023/07/07 06:42:09;;;;;;;86.83;5.20;;;;;;;25.07;59.36;100026.50;7302077;19;130457;-39
2023/07/07 06:44:38;;;;;;;78.40;4.70;;;;;;;25.08;58.87;100037.84;7304269;19;130298;-41
2023/07/07 06:47:05;;;;;;;103.03;6.25;;;;;;;25.07;59.31;100037.00;7300349;19;130446;-39
2023/07/07 06:49:30;;;;;;;89.35;5.20;;;;;;;25.06;59.12;100034.53;7300413;19;130485;-36
2023/07/07 06:51:55;;;;;;;74.53;4.50;;;;;;;25.07;59.24;100031.75;7300792;19;129966;-33
2023/07/07 06:54:21;;;;;;;63.80;4.07;;;;;;;25.08;59.10;100027.31;7303495;19;130335;-40
2023/07/07 06:56:46;;;;;;;73.17;4.40;;;;;;;25.05;58.91;100022.38;7301064;19;131039;-38
2023/07/07 06:59:11;;;;;;;106.63;6.23;;;;;;;25.07;59.19;100025.69;7301499;19;131463;-39
2023/07/07 07:01:37;;;;;;;87.77;5.07;;;;;;;25.08;58.87;100030.78;7300739;19;130363;-40
2023/07/07 07:04:03;;;;;;;76.03;4.80;;;;;;;25.07;59.31;100029.13;7300036;19;131926;-33
2023/07/07 07:06:28;;;;;;;82.93;4.87;;;;;;;25.07;59.35;100036.22;7300138;19;130485;-37
2023/07/07 07:08:54;;;;;;;104.27;6.03;;;;;;;25.07;59.04;100037.00;7299583;19;130569;-39
2023/07/07 07:11:19;;;;;;;72.47;4.30;;;;;;;25.04;59.18;100036.50;7299428;19;130814;-38
2023/07/07 07:13:45;;;;;;;87.00;5.33;;;;;;;25.07;59.24;100041.47;7298683;19;129939;-35
2023/07/07 07:16:11;;;;;;;92.80;5.67;;;;;;;25.06;59.12;100040.63;7297555;19;130338;-38
2023/07/07 07:18:36;;;;;;;100.50;5.73;;;;;;;24.95;59.13;100026.88;7298714;19;130315;-35
2023/07/07 07:21:01;;;;;;;90.53;5.63;;;;;;;25.06;58.98;100045.91;7298673;19;130649;-38
2023/07/07 07:23:27;;;;;;;56.80;3.60;;;;;;;25.06;59.22;100029.28;7301414;19;130303;-38
2023/07/07 07:25:52;;;;;;;81.37;5.00;;;;;;;25.07;58.83;100037.00;7299318;19;130784;-39
2023/07/07 07:28:18;;;;;;;101.40;5.83;;;;;;;25.06;59.33;100039.78;7299941;19;130879;-35
2023/07/07 07:30:43;;;;;;;84.77;5.27;;;;;;;25.06;58.79;100045.91;7300559;19;131694;-37
2023/07/07 07:33:20;;;;;;;65.60;4.00;;;;;;;25.08;59.52;100037.84;7299939;19;130771;-40
2023/07/07 07:35:46;;;;;;;86.25;5.30;;;;;;;25.06;59.00;100034.53;7299258;19;130317;-39
2023/07/07 07:38:13;;;;;;;100.93;5.93;;;;;;;25.04;59.02;100028.63;7300560;19;130403;-34
2023/07/07 07:40:39;;;;;;;92.30;5.57;;;;;;;25.05;59.62;100036.34;7295659;19;129917;-40
2023/07/07 07:43:04;;;;;;;89.87;5.30;;;;;;;25.05;58.98;100036.34;7299020;19;129422;-34
2023/07/07 07:45:29;;;;;;;82.33;4.90;;;;;;;25.06;59.29;100042.44;7298320;19;130321;-37
2023/07/07 07:47:55;;;;;;;104.10;5.87;;;;;;;25.06;59.14;100029.28;7298831;19;129936;-41
2023/07/07 07:50:21;;;;;;;98.20;6.10;;;;;;;25.05;59.37;100032.91;7296836;19;130670;-32
2023/07/07 07:52:47;;;;;;;;;;;;;;;25.13;59.37;100023.28;7300135;19;129659;-31
2023/07/07 07:55:16;;;;;;;88.68;5.28;;;;;;;25.06;59.12;100034.53;7297504;19;131410;-36
2023/07/07 07:57:42;;;;;;;83.53;4.80;;;;;;;25.05;59.41;100030.25;7298904;19;130219;-31
2023/07/07 08:00:08;;;;;;;82.07;4.85;;;;;;;25.02;59.32;100025.31;7297595;19;130935;-38
2023/07/07 08:02:35;;;;;;;72.43;4.43;;;;;;;25.04;59.41;100028.63;7299087;19;130423;-41
2023/07/07 08:05:00;;;;;;;57.35;3.58;;;;;;;24.99;59.64;100023.78;7299701;19;131078;-41
2023/07/07 08:07:26;;;;;;;100.40;6.00;;;;;;;25.03;59.36;100029.56;7298876;19;130620;-34
2023/07/07 08:09:51;;;;;;;98.63;5.93;;;;;;;25.03;59.33;100026.94;7295608;19;129811;-39
2023/07/07 08:12:17;;;;;;;80.50;4.77;;;;;;;25.04;59.30;100031.25;7299169;19;129832;-42
2023/07/07 08:14:42;;;;;;;95.43;5.83;;;;;;;25.04;59.00;100029.44;7297707;19;129413;-38
2023/07/07 08:17:12;;;;;;;116.57;6.83;;;;;;;25.05;59.90;100022.38;7298419;19;129848;-38
2023/07/07 08:19:40;;;;;;;54.67;3.40;;;;;;;25.04;59.44;100020.72;7297225;19;131299;-39
2023/07/07 08:22:08;;;;;;;74.22;4.45;;;;;;;25.03;59.50;100024.31;7297507;19;129934;-37
2023/07/07 08:24:46;;;;;;;94.75;5.50;;;;;;;24.97;59.62;100009.16;7303387;19;129862;-38
2023/07/07 08:27:13;;;;;;;116.72;6.78;;;;;;;25.01;59.34;100023.63;7304318;19;130568;-37
2023/07/07 08:29:39;;;;;;;93.53;5.38;;;;;;;25.03;59.52;100024.31;7302981;19;129560;-39
2023/07/07 08:32:05;;;;;;;67.90;4.27;;;;;;;25.03;59.74;100034.84;7306077;19;130931;-36
2023/07/07 08:34:30;;;;;;;88.73;5.13;;;;;;;25.03;59.20;100021.69;7305267;19;131131;-38
2023/07/07 08:36:59;;;;;;;114.53;6.50;;;;;;;25.02;59.33;100023.50;7301330;19;129736;-36
2023/07/07 08:39:26;;;;;;;85.80;5.00;;;;;;;25.02;59.59;100030.56;7303144;19;130498;-39
2023/07/07 08:41:55;;;;;;;83.22;4.90;;;;;;;25.03;59.66;100037.47;7305800;19;130701;-38
2023/07/07 08:44:23;;;;;;;76.22;4.60;;;;;;;25.03;59.76;100037.47;7305635;19;130415;-36
2023/07/07 08:47:04;;;;;;;94.70;5.35;;;;;;;25.05;59.69;100038.16;7303281;19;129706;-38
2023/07/07 08:49:48;;;;;;;111.20;6.45;;;;;;;25.06;59.58;100039.78;7302707;19;131139;-33
2023/07/07 08:52:37;;;;;;;94.88;5.43;;;;;;;25.06;59.36;100034.53;7305807;19;130120;-44
2023/07/07 08:55:31;;;;;;;96.40;5.65;;;;;;;25.02;59.32;100028.78;7305415;19;131430;-38
2023/07/07 08:58:08;;;;;;;94.40;5.43;;;;;;;25.04;59.31;100033.88;7306381;19;130212;-42
2023/07/07 09:01:05;;;;;;;92.00;5.43;;;;;;;25.07;59.67;100033.56;7301827;19;129146;-36
2023/07/07 09:03:40;;;;;;;93.87;5.43;;;;;;;25.02;59.17;100030.56;7302800;19;129887;-41
2023/07/07 09:06:34;;;;;;;106.85;6.07;;;;;;;24.95;60.08;100011.09;7305044;19;130575;-37
2023/07/07 09:09:08;;;;;;;81.00;4.57;;;;;;;24.97;59.95;100024.94;7303583;19;130401;-39
2023/07/07 09:11:33;;;;;;;148.05;7.57;;;;;;;25.01;59.17;100036.78;7300741;19;130368;-36
2023/07/07 09:14:00;;;;;;;96.37;5.83;;;;;;;24.92;59.84;100019.28;7306213;19;130892;-39
2023/07/07 09:16:29;;;;;;;70.10;4.32;;;;;;;25.02;59.48;100030.56;7302671;19;131841;-40
2023/07/07 09:19:00;;;;;;;114.50;6.68;;;;;;;25.01;59.09;100032.38;7304938;19;132010;-32
2023/07/07 09:21:50;;;;;;;86.78;5.10;;;;;;;25.05;59.62;100032.91;7305749;19;129274;-38
2023/07/07 09:24:19;;;;;;;92.32;5.32;;;;;;;25.03;60.06;100029.56;7304126;19;129154;-43
2023/07/07 09:26:47;;;;;;;75.32;4.57;;;;;;;25.01;59.81;100032.38;7306427;19;130016;-39
2023/07/07 09:29:19;;;;;;;102.00;6.00;;;;;;;24.93;60.14;100013.03;7302479;19;131596;-38
2023/07/07 09:31:45;;;;;;;96.85;5.75;;;;;;;24.90;59.79;100008.94;7303747;19;130108;-38
2023/07/07 09:34:13;;;;;;;99.00;5.80;;;;;;;25.01;59.28;100028.91;7303743;19;130825;-39
2023/07/07 09:37:14;;;;;;;80.53;4.82;;;;;;;25.04;60.04;100026.78;7302867;19;130155;-37
2023/07/07 09:40:01;;;;;;;85.78;4.85;;;;;;;24.90;59.85;100014.19;7302779;19;129278;-42
2023/07/07 09:42:32;;;;;;;95.82;5.35;;;;;;;24.98;59.76;100023.94;7306905;19;130482;-36
2023/07/07 09:45:15;;;;;;;95.35;5.65;;;;;;;25.01;60.16;100023.63;7301495;19;130759;-38
2023/07/07 09:47:44;;;;;;;93.78;5.78;;;;;;;25.00;60.15;100024.63;7301171;19;131186;-38
2023/07/07 09:50:12;;;;;;;79.10;4.78;;;;;;;25.01;59.41;100024.47;7298838;19;130447;-35
2023/07/07 09:52:58;;;;;;;66.72;3.92;;;;;;;25.04;60.07;100026.00;7303798;19;130167;-37
2023/07/07 09:55:28;;;;;;;87.70;4.97;;;;;;;25.01;59.83;100015.75;7301594;19;129300;-39
2023/07/07 09:58:03;;;;;;;116.40;6.53;;;;;;;25.04;59.80;100018.09;7300240;19;130199;-40
2023/07/07 10:00:31;;;;;;;80.38;4.72;;;;;;;25.01;59.90;100016.56;7300399;19;129170;-38
2023/07/07 10:02:58;;;;;;;48.95;3.03;;;;;;;25.00;59.21;100020.19;7306398;19;130379;-41
2023/07/07 10:05:29;;;;;;;58.20;3.63;;;;;;;24.93;59.85;100006.00;7302724;19;129115;-40
2023/07/07 10:07:57;;;;;;;96.40;5.60;;;;;;;25.00;59.84;100017.56;7303028;19;130074;-37
2023/07/07 10:10:22;;;;;;;82.03;4.85;;;;;;;25.00;59.55;100014.94;7299632;19;130651;-37
2023/07/07 10:12:48;;;;;;;80.77;4.80;;;;;;;25.03;59.58;100019.06;7304225;19;129890;-39
2023/07/07 10:15:22;;;;;;;96.60;5.67;;;;;;;25.03;59.89;100013.78;7302576;19;129437;-38
2023/07/07 10:17:58;;;;;;;72.90;4.43;;;;;;;25.01;60.21;100021.00;7302839;19;129741;-38
2023/07/07 10:20:23;;;;;;;80.82;4.82;;;;;;;25.00;59.83;100019.38;7300814;19;129404;-36
2023/07/07 10:22:48;;;;;;;102.67;6.00;;;;;;;25.02;59.56;100022.69;7302550;19;129749;-42
2023/07/07 10:25:15;;;;;;;100.87;6.00;;;;;;;25.01;59.50;100016.56;7301765;19;130108;-41
2023/07/07 10:27:51;;;;;;;71.53;4.30;;;;;;;25.02;59.61;100015.63;7302197;19;130790;-38
2023/07/07 10:30:17;;;;;;;74.50;4.32;;;;;;;25.00;59.21;100019.38;7298651;19;129564;-38
2023/07/07 10:32:43;;;;;;;59.73;3.47;;;;;;;25.00;59.91;100019.38;7304029;19;130817;-42
2023/07/07 10:35:15;;;;;;;84.50;4.95;;;;;;;24.97;59.89;100015.25;7303995;19;130108;-41
2023/07/07 10:37:40;;;;;;;94.45;5.55;;;;;;;25.00;59.66;100020.19;7302223;19;129795;-36
2023/07/07 10:40:14;;;;;;;71.20;4.27;;;;;;;25.01;59.83;100019.22;7300070;19;132103;-40
2023/07/07 10:42:39;;;;;;;83.78;4.90;;;;;;;25.00;59.60;100019.38;7300334;19;130249;-38
2023/07/07 10:45:05;;;;;;;121.17;7.03;;;;;;;24.99;59.73;100012.47;7300926;19;130409;-36
2023/07/07 10:47:33;;;;;;;93.40;5.57;;;;;;;24.99;60.11;100013.25;7298923;19;130484;-40
2023/07/07 10:49:59;;;;;;;79.78;4.90;;;;;;;24.97;60.15;100011.78;7297484;19;130599;-30
2023/07/07 10:52:37;;;;;;;79.95;5.07;;;;;;;24.98;59.70;100010.78;7299593;19;130592;-41
2023/07/07 10:55:08;;;;;;;102.20;5.82;;;;;;;25.01;60.19;100010.47;7299431;19;133061;-38
2023/07/07 10:57:42;;;;;;;90.22;5.10;;;;;;;24.88;60.31;99989.00;7300461;19;130816;-39
2023/07/07 11:00:10;;;;;;;72.07;4.25;;;;;;;24.98;59.58;100001.09;7298625;19;129285;-39
2023/07/07 11:02:48;;;;;;;74.78;4.45;;;;;;;24.96;60.06;100007.47;7299999;19;131308;-38
2023/07/07 11:05:23;;;;;;;88.93;5.18;;;;;;;25.01;60.38;100007.84;7301625;19;129666;-34
2023/07/07 11:07:57;;;;;;;118.80;6.55;;;;;;;25.00;60.15;100003.56;7300346;19;130031;-40
2023/07/07 11:10:50;;;;;;;104.43;5.93;;;;;;;25.00;59.77;99998.31;7302800;19;129673;-40
2023/07/07 11:13:35;;;;;;;110.47;6.38;;;;;;;25.00;60.02;100006.22;7301865;19;130400;-36
2023/07/07 11:16:17;;;;;;;90.00;5.32;;;;;;;24.99;59.52;100007.19;7300984;19;128962;-35
2023/07/07 11:19:02;;;;;;;78.03;4.53;;;;;;;24.95;59.76;99990.06;7298826;19;130170;-40
2023/07/07 11:21:42;;;;;;;84.38;4.82;;;;;;;25.00;59.61;99999.16;7301740;19;130512;-35